createdAt,value
2022-12-05T00:00:39.202Z,63.60
2022-12-05T00:01:39.038Z,52.70
2022-12-05T00:02:39.007Z,61.20
2022-12-05T00:03:38.778Z,54.90
2022-12-05T00:04:39.017Z,59.60
2022-12-05T00:05:38.744Z,57.80
2022-12-05T00:06:38.785Z,59.10
2022-12-05T00:07:38.844Z,54.20
2022-12-05T00:08:38.730Z,61.10
2022-12-05T00:10:10.659Z,59.80
2022-12-05T00:10:38.701Z,55.00
2022-12-05T00:11:39.853Z,55.80
2022-12-05T00:12:38.683Z,61.80
2022-12-05T00:13:38.702Z,58.80
2022-12-05T00:14:38.674Z,59.50
2022-12-05T00:15:38.682Z,62.20
2022-12-05T00:16:38.773Z,54.40
2022-12-05T00:17:39.704Z,60.60
2022-12-05T00:19:10.575Z,58.00
2022-12-05T00:19:38.837Z,60.00
2022-12-05T00:20:38.670Z,60.50
2022-12-05T00:21:38.627Z,66.10
2022-12-05T00:22:38.680Z,65.30
2022-12-05T00:23:38.627Z,61.40
2022-12-05T00:24:38.630Z,63.40
2022-12-05T00:25:38.607Z,65.10
2022-12-05T00:26:38.609Z,57.50
2022-12-05T00:27:38.624Z,55.80
2022-12-05T00:28:38.616Z,55.90
2022-12-05T00:29:38.609Z,57.30
2022-12-05T00:30:38.589Z,61.20
2022-12-05T00:31:38.678Z,59.40
2022-12-05T00:32:39.376Z,63.80
2022-12-05T00:33:38.576Z,59.00
2022-12-05T00:34:38.569Z,60.50
2022-12-05T00:35:38.584Z,53.60
2022-12-05T00:36:38.529Z,55.80
2022-12-05T00:37:38.510Z,55.00
2022-12-05T00:38:38.546Z,52.90
2022-12-05T00:39:38.547Z,56.50
2022-12-05T00:40:38.560Z,54.70
2022-12-05T00:41:38.560Z,55.20
2022-12-05T00:42:38.578Z,61.30
2022-12-05T00:43:38.481Z,57.00
2022-12-05T00:44:39.462Z,54.30
2022-12-05T00:45:38.546Z,58.80
2022-12-05T00:46:38.489Z,57.50
2022-12-05T00:47:38.438Z,52.60
2022-12-05T00:48:38.460Z,48.30
2022-12-05T00:49:38.410Z,54.60
2022-12-05T00:50:38.443Z,54.90
2022-12-05T00:51:38.472Z,58.60
2022-12-05T00:52:38.537Z,56.70
2022-12-05T00:53:38.402Z,53.30
2022-12-05T00:54:38.390Z,53.20
2022-12-05T00:55:38.412Z,53.70
2022-12-05T00:56:38.376Z,52.70
2022-12-05T00:57:38.373Z,52.00
2022-12-05T00:58:38.362Z,51.70
2022-12-05T00:59:38.377Z,48.30
2022-12-05T01:00:38.464Z,51.40
2022-12-05T01:01:38.485Z,54.50
2022-12-05T01:02:38.365Z,51.80
2022-12-05T01:03:38.376Z,53.90
2022-12-05T01:04:38.321Z,56.60
2022-12-05T01:05:38.366Z,51.20
2022-12-05T01:06:38.281Z,53.40
2022-12-05T01:07:38.348Z,55.00
2022-12-05T01:08:38.268Z,55.60
2022-12-05T01:09:38.289Z,50.90
2022-12-05T01:11:10.170Z,55.70
2022-12-05T01:11:41.445Z,53.40
2022-12-05T01:12:39.289Z,53.60
2022-12-05T01:13:38.226Z,53.00
2022-12-05T01:14:38.273Z,54.10
2022-12-05T01:15:38.214Z,54.50
2022-12-05T01:16:38.314Z,56.80
2022-12-05T01:17:38.291Z,53.40
2022-12-05T01:18:38.196Z,53.20
2022-12-05T01:19:38.180Z,55.90
2022-12-05T01:20:38.228Z,53.80
2022-12-05T01:21:38.187Z,62.80
2022-12-05T01:22:38.171Z,52.80
2022-12-05T01:23:38.132Z,56.80
2022-12-05T01:24:38.876Z,55.10
2022-12-05T01:25:38.141Z,51.50
2022-12-05T01:26:38.154Z,56.10
2022-12-05T01:27:38.140Z,62.00
2022-12-05T01:28:38.159Z,62.00
2022-12-05T01:29:38.097Z,57.90
2022-12-05T01:30:38.141Z,60.70
2022-12-05T01:31:38.144Z,55.50
2022-12-05T01:32:38.142Z,59.30
2022-12-05T01:33:38.106Z,56.40
2022-12-05T01:34:38.102Z,58.50
2022-12-05T01:35:38.081Z,60.80
2022-12-05T01:36:38.077Z,54.60
2022-12-05T01:37:38.056Z,55.30
2022-12-05T01:38:38.226Z,59.60
2022-12-05T01:39:38.042Z,60.80
2022-12-05T01:40:38.033Z,61.70
2022-12-05T01:41:38.090Z,56.70
2022-12-05T01:42:38.018Z,62.00
2022-12-05T01:43:38.040Z,68.40
2022-12-05T01:44:38.051Z,66.20
2022-12-05T01:45:38.079Z,58.90
2022-12-05T01:46:37.984Z,66.40
2022-12-05T01:47:37.980Z,63.00
2022-12-05T01:48:37.972Z,57.90
2022-12-05T01:49:37.996Z,58.70
2022-12-05T01:50:37.951Z,61.70
2022-12-05T01:51:37.975Z,53.80
2022-12-05T01:52:37.954Z,57.70
2022-12-05T01:53:37.936Z,58.90
2022-12-05T01:54:37.933Z,56.80
2022-12-05T01:55:37.962Z,59.70
2022-12-05T01:56:37.941Z,60.40
2022-12-05T01:57:37.972Z,54.40
2022-12-05T01:58:37.938Z,54.90
2022-12-05T02:00:09.828Z,57.50
2022-12-05T02:00:37.988Z,62.90
2022-12-05T02:01:37.943Z,58.90
2022-12-05T02:02:37.889Z,64.50
2022-12-05T02:03:37.842Z,60.80
2022-12-05T02:04:37.847Z,61.10
2022-12-05T02:05:37.866Z,64.70
2022-12-05T02:06:37.804Z,60.20
2022-12-05T02:07:38.953Z,62.40
2022-12-05T02:08:37.798Z,62.20
2022-12-05T02:09:37.803Z,59.50
2022-12-05T02:10:37.833Z,66.50
2022-12-05T02:11:37.789Z,63.00
2022-12-05T02:12:39.071Z,62.10
2022-12-05T02:13:38.781Z,60.10
2022-12-05T02:14:38.795Z,65.40
2022-12-05T02:15:37.825Z,69.00
2022-12-05T02:16:37.812Z,64.70
2022-12-05T02:17:37.784Z,71.50
2022-12-05T02:18:37.753Z,68.00
2022-12-05T02:19:37.728Z,68.20
2022-12-05T02:20:37.736Z,81.90
2022-12-05T02:21:37.714Z,69.10
2022-12-05T02:22:38.739Z,62.10
2022-12-05T02:23:37.735Z,67.00
2022-12-05T02:24:37.707Z,64.50
2022-12-05T02:25:37.695Z,64.30
2022-12-05T02:26:37.681Z,65.30
2022-12-05T02:27:37.734Z,66.00
2022-12-05T02:28:37.656Z,62.00
2022-12-05T02:29:37.666Z,66.20
2022-12-05T02:30:37.638Z,67.50
2022-12-05T02:31:37.759Z,60.90
2022-12-05T02:32:37.696Z,60.60
2022-12-05T02:33:37.848Z,65.90
2022-12-05T02:34:37.636Z,62.50
2022-12-05T02:35:37.678Z,61.00
2022-12-05T02:36:37.691Z,61.40
2022-12-05T02:37:37.607Z,60.30
2022-12-05T02:38:37.632Z,65.30
2022-12-05T02:39:37.611Z,64.10
2022-12-05T02:40:37.685Z,57.90
2022-12-05T02:41:37.574Z,62.20
2022-12-05T02:42:37.596Z,61.90
2022-12-05T02:43:37.671Z,60.60
2022-12-05T02:44:37.585Z,53.10
2022-12-05T02:45:37.683Z,60.10
2022-12-05T02:46:37.615Z,63.00
2022-12-05T02:47:37.538Z,57.80
2022-12-05T02:48:37.537Z,58.50
2022-12-05T02:49:37.551Z,62.60
2022-12-05T02:50:37.590Z,63.30
2022-12-05T02:51:37.545Z,59.40
2022-12-05T02:52:37.525Z,64.10
2022-12-05T02:53:38.498Z,60.40
2022-12-05T02:54:37.458Z,61.40
2022-12-05T02:55:37.484Z,62.90
2022-12-05T02:56:37.483Z,60.20
2022-12-05T02:57:37.447Z,62.20
2022-12-05T02:58:37.460Z,63.70
2022-12-05T02:59:37.449Z,62.90
2022-12-05T03:00:37.504Z,62.20
2022-12-05T03:01:37.492Z,67.90
2022-12-05T03:02:37.406Z,62.60
2022-12-05T03:03:37.403Z,63.00
2022-12-05T03:04:37.541Z,58.50
2022-12-05T03:05:37.406Z,58.90
2022-12-05T03:06:37.403Z,61.50
2022-12-05T03:07:37.492Z,59.40
2022-12-05T03:08:38.415Z,60.00
2022-12-05T03:09:37.354Z,60.70
2022-12-05T03:10:37.381Z,56.30
2022-12-05T03:11:37.436Z,55.90
2022-12-05T03:12:37.400Z,57.20
2022-12-05T03:13:37.329Z,57.30
2022-12-05T03:14:37.360Z,61.20
2022-12-05T03:15:37.306Z,60.80
2022-12-05T03:17:09.840Z,61.40
2022-12-05T03:17:37.350Z,58.90
2022-12-05T03:18:37.279Z,61.10
2022-12-05T03:19:37.368Z,62.60
2022-12-05T03:20:37.272Z,50.80
2022-12-05T03:21:37.261Z,56.80
2022-12-05T03:22:37.247Z,51.80
2022-12-05T03:23:37.279Z,60.00
2022-12-05T03:24:37.234Z,58.80
2022-12-05T03:25:37.232Z,60.00
2022-12-05T03:26:37.218Z,62.20
2022-12-05T03:27:37.404Z,56.50
2022-12-05T03:28:38.237Z,60.80
2022-12-05T03:29:37.248Z,56.00
2022-12-05T03:30:37.282Z,60.00
2022-12-05T03:31:37.206Z,65.90
2022-12-05T03:32:37.269Z,62.90
2022-12-05T03:33:37.178Z,58.20
2022-12-05T03:34:37.163Z,70.90
2022-12-05T03:35:37.152Z,66.30
2022-12-05T03:36:37.185Z,63.80
2022-12-05T03:37:37.142Z,67.70
2022-12-05T03:38:37.183Z,57.30
2022-12-05T03:39:37.136Z,60.60
2022-12-05T03:40:37.165Z,69.10
2022-12-05T03:41:37.121Z,66.40
2022-12-05T03:42:37.127Z,61.20
2022-12-05T03:43:37.153Z,62.20
2022-12-05T03:45:09.032Z,59.20
2022-12-05T03:45:37.121Z,62.60
2022-12-05T03:46:37.257Z,65.50
2022-12-05T03:47:37.101Z,58.90
2022-12-05T04:02:51.978Z,58.90
2022-12-05T04:03:52.152Z,63.10
2022-12-05T04:04:53.069Z,68.20
2022-12-05T04:05:53.119Z,67.60
2022-12-05T04:06:53.079Z,70.90
2022-12-05T04:07:53.102Z,66.70
2022-12-05T04:08:53.030Z,74.80
2022-12-05T04:09:53.027Z,66.80
2022-12-05T04:10:53.043Z,73.30
2022-12-05T04:11:53.116Z,77.40
2022-12-05T04:12:53.069Z,69.10
2022-12-05T04:13:53.051Z,70.40
2022-12-05T04:14:52.992Z,66.50
2022-12-05T04:15:53.067Z,72.00
2022-12-05T04:16:53.063Z,76.90
2022-12-05T04:17:53.896Z,78.20
2022-12-05T04:18:53.987Z,75.40
2022-12-05T04:19:52.963Z,66.60
2022-12-05T04:20:53.001Z,74.10
2022-12-05T04:21:53.020Z,77.50
2022-12-05T04:22:52.971Z,67.00
2022-12-05T04:23:52.942Z,76.90
2022-12-05T04:24:52.989Z,67.40
2022-12-05T04:25:52.928Z,61.80
2022-12-05T04:26:52.921Z,69.10
2022-12-05T04:27:52.902Z,71.80
2022-12-05T04:28:52.908Z,61.30
2022-12-05T04:29:52.929Z,70.60
2022-12-05T04:30:52.921Z,68.70
2022-12-05T04:31:52.901Z,72.00
2022-12-05T04:32:52.877Z,65.00
2022-12-05T04:33:52.854Z,65.50
2022-12-05T04:34:52.888Z,67.10
2022-12-05T04:35:52.892Z,74.80
2022-12-05T04:36:52.831Z,70.60
2022-12-05T04:37:52.851Z,64.40
2022-12-05T04:38:52.834Z,65.00
2022-12-05T04:39:52.865Z,70.20
2022-12-05T04:40:52.831Z,66.20
2022-12-05T04:41:52.887Z,73.90
2022-12-05T04:42:52.813Z,70.40
2022-12-05T04:43:52.773Z,65.10
2022-12-05T04:44:52.797Z,79.00
2022-12-05T04:45:52.802Z,69.90
2022-12-05T04:46:52.797Z,70.80
2022-12-05T04:47:52.755Z,61.30
2022-12-05T04:48:52.738Z,68.50
2022-12-05T04:49:53.937Z,73.30
2022-12-05T04:50:53.727Z,68.70
2022-12-05T04:51:52.739Z,67.80
2022-12-05T04:52:52.713Z,73.20
2022-12-05T04:53:52.708Z,67.40
2022-12-05T04:54:52.674Z,66.00
2022-12-05T04:55:53.692Z,65.40
2022-12-05T04:56:55.624Z,73.30
2022-12-05T04:57:53.678Z,65.40
2022-12-05T04:58:52.770Z,68.00
2022-12-05T04:59:52.670Z,63.00
2022-12-05T05:00:52.651Z,66.80
2022-12-05T05:01:52.748Z,60.80
2022-12-05T05:02:52.705Z,55.00
2022-12-05T05:03:52.631Z,56.20
2022-12-05T05:04:52.621Z,61.80
2022-12-05T05:05:52.638Z,52.60
2022-12-05T05:06:52.678Z,60.40
2022-12-05T05:07:52.726Z,58.60
2022-12-05T05:08:52.593Z,66.10
2022-12-05T05:09:52.666Z,63.20
2022-12-05T05:10:52.589Z,61.70
2022-12-05T05:11:52.566Z,61.50
2022-12-05T05:12:52.581Z,70.40
2022-12-05T05:13:52.581Z,63.70
2022-12-05T05:14:52.592Z,54.80
2022-12-05T05:15:52.601Z,57.10
2022-12-05T05:16:52.554Z,56.60
2022-12-05T05:17:52.518Z,55.00
2022-12-05T05:18:52.571Z,49.60
2022-12-05T05:19:52.497Z,54.00
2022-12-05T05:20:52.559Z,51.80
2022-12-05T05:21:52.497Z,54.90
2022-12-05T05:22:52.483Z,57.40
2022-12-05T05:23:52.616Z,55.90
2022-12-05T05:24:52.484Z,56.30
2022-12-05T05:25:52.460Z,55.70
2022-12-05T05:26:57.075Z,58.70
2022-12-05T05:27:54.447Z,56.10
2022-12-05T05:28:52.497Z,59.80
2022-12-05T05:29:52.441Z,55.20
2022-12-05T05:30:52.484Z,65.50
2022-12-05T05:31:52.407Z,58.30
2022-12-05T05:32:52.426Z,54.50
2022-12-05T05:33:52.404Z,58.10
2022-12-05T05:34:52.410Z,60.60
2022-12-05T05:35:52.429Z,63.20
2022-12-05T05:36:52.426Z,58.30
2022-12-05T05:37:52.407Z,59.70
2022-12-05T05:38:52.365Z,55.10
2022-12-05T05:39:52.388Z,62.70
2022-12-05T05:40:52.366Z,67.60
2022-12-05T05:41:52.374Z,60.30
2022-12-05T05:42:52.336Z,70.70
2022-12-05T05:43:52.346Z,71.70
2022-12-05T05:44:52.340Z,69.20
2022-12-05T05:45:52.333Z,69.50
2022-12-05T05:46:52.397Z,75.40
2022-12-05T05:47:52.291Z,77.70
2022-12-05T05:48:52.312Z,71.20
2022-12-05T05:49:52.331Z,79.70
2022-12-05T05:50:52.302Z,73.40
2022-12-05T05:51:52.300Z,89.40
2022-12-05T05:52:52.304Z,90.20
2022-12-05T05:53:52.245Z,92.70
2022-12-05T05:54:52.263Z,109.20
2022-12-05T05:55:52.315Z,96.50
2022-12-05T05:56:52.271Z,105.80
2022-12-05T05:57:52.250Z,102.90
2022-12-05T05:58:52.218Z,100.60
2022-12-05T05:59:52.201Z,87.10
2022-12-05T06:00:52.230Z,89.70
2022-12-05T06:01:52.206Z,93.00
2022-12-05T06:02:52.290Z,89.40
2022-12-05T06:03:52.325Z,85.60
2022-12-05T06:04:52.149Z,91.70
2022-12-05T06:05:53.197Z,77.90
2022-12-05T06:06:53.161Z,78.50
2022-12-05T06:07:52.250Z,74.20
2022-12-05T06:08:52.151Z,73.00
2022-12-05T06:09:52.146Z,67.20
2022-12-05T06:10:52.130Z,69.30
2022-12-05T06:11:52.142Z,79.70
2022-12-05T06:12:52.122Z,73.70
2022-12-05T06:13:52.082Z,84.30
2022-12-05T06:14:52.113Z,82.90
2022-12-05T06:15:52.318Z,70.40
2022-12-05T06:16:52.144Z,75.00
2022-12-05T06:17:52.084Z,75.50
2022-12-05T06:18:52.061Z,74.30
2022-12-05T06:19:52.071Z,74.40
2022-12-05T06:20:52.068Z,72.70
2022-12-05T06:21:52.057Z,71.60
2022-12-05T06:22:52.035Z,72.30
2022-12-05T06:23:52.031Z,68.10
2022-12-05T06:24:52.010Z,75.80
2022-12-05T06:25:52.010Z,72.60
2022-12-05T06:26:52.009Z,75.20
2022-12-05T06:28:24.450Z,70.50
2022-12-05T06:28:52.001Z,76.10
2022-12-05T06:29:52.982Z,73.50
2022-12-05T06:30:51.975Z,81.20
2022-12-05T06:31:52.062Z,79.50
2022-12-05T06:32:52.732Z,82.70
2022-12-05T06:33:51.966Z,89.30
2022-12-05T06:34:52.136Z,74.50
2022-12-05T06:35:51.950Z,92.80
2022-12-05T06:36:51.940Z,82.00
2022-12-05T06:37:51.919Z,80.40
2022-12-05T06:38:51.923Z,74.70
2022-12-05T06:39:51.924Z,82.20
2022-12-05T06:40:51.919Z,89.30
2022-12-05T06:41:51.906Z,88.00
2022-12-05T06:42:51.881Z,90.30
2022-12-05T06:43:55.113Z,82.10
2022-12-05T06:44:51.878Z,84.60
2022-12-05T06:45:51.936Z,83.10
2022-12-05T06:46:51.869Z,84.10
2022-12-05T06:47:52.014Z,76.40
2022-12-05T06:48:51.816Z,80.40
2022-12-05T06:49:51.822Z,85.60
2022-12-05T06:50:51.817Z,90.30
2022-12-05T06:51:51.823Z,84.00
2022-12-05T06:52:51.808Z,88.90
2022-12-05T06:53:51.825Z,98.60
2022-12-05T06:54:51.804Z,92.80
2022-12-05T06:55:51.851Z,89.00
2022-12-05T06:56:51.791Z,88.80
2022-12-05T06:57:51.812Z,98.00
2022-12-05T06:58:51.790Z,92.60
2022-12-05T06:59:51.746Z,93.70
2022-12-05T07:00:51.782Z,88.40
2022-12-05T07:01:51.925Z,93.30
2022-12-05T07:02:51.885Z,95.00
2022-12-05T07:03:51.726Z,88.50
2022-12-05T07:04:51.709Z,103.30
2022-12-05T07:05:51.691Z,108.80
2022-12-05T07:06:51.693Z,96.10
2022-12-05T07:07:51.787Z,97.90
2022-12-05T07:08:51.688Z,109.40
2022-12-05T07:09:51.686Z,118.20
2022-12-05T07:10:52.654Z,119.80
2022-12-05T07:11:51.728Z,101.80
2022-12-05T07:12:51.653Z,100.70
2022-12-05T07:13:51.682Z,106.90
2022-12-05T07:14:51.644Z,110.10
2022-12-05T07:15:51.664Z,99.90
2022-12-05T07:16:51.699Z,101.10
2022-12-05T07:17:51.627Z,99.20
2022-12-05T07:19:41.572Z,107.60
2022-12-05T07:19:51.595Z,104.30
2022-12-05T07:21:11.236Z,103.10
2022-12-05T07:21:54.583Z,98.40
2022-12-05T07:22:51.590Z,109.10
2022-12-05T07:23:53.551Z,100.70
2022-12-05T07:24:51.643Z,107.60
2022-12-05T07:25:51.555Z,120.90
2022-12-05T07:26:51.606Z,109.00
2022-12-05T07:27:51.542Z,111.30
2022-12-05T07:28:51.564Z,104.40
2022-12-05T07:29:51.536Z,98.60
2022-12-05T07:30:51.523Z,110.50
2022-12-05T07:31:51.546Z,102.50
2022-12-05T07:32:51.496Z,97.50
2022-12-05T07:33:51.704Z,103.10
2022-12-05T07:34:55.253Z,99.40
2022-12-05T07:35:52.504Z,99.60
2022-12-05T07:36:51.471Z,112.80
2022-12-05T07:37:51.482Z,100.90
2022-12-05T07:38:51.456Z,105.20
2022-12-05T07:39:51.440Z,129.40
2022-12-05T07:40:52.053Z,108.20
2022-12-05T07:41:52.454Z,119.50
2022-12-05T07:42:51.425Z,129.10
2022-12-05T07:43:51.412Z,122.50
2022-12-05T07:44:51.526Z,119.20
2022-12-05T07:45:51.493Z,113.90
2022-12-05T07:46:51.449Z,106.50
2022-12-05T07:47:51.420Z,106.10
2022-12-05T07:48:51.382Z,110.10
2022-12-05T07:49:51.355Z,107.40
2022-12-05T07:50:51.417Z,123.10
2022-12-05T07:51:51.372Z,109.80
2022-12-05T07:52:51.367Z,122.40
2022-12-05T07:53:51.322Z,132.70
2022-12-05T07:54:51.345Z,132.10
2022-12-05T07:55:51.319Z,136.50
2022-12-05T07:56:51.307Z,136.90
2022-12-05T07:57:51.372Z,143.40
2022-12-05T07:58:51.316Z,138.50
2022-12-05T07:59:51.330Z,127.40
2022-12-05T08:00:51.356Z,126.10
2022-12-05T08:01:51.385Z,127.10
2022-12-05T08:02:51.274Z,136.90
2022-12-05T08:03:51.251Z,135.20
2022-12-05T08:04:51.231Z,136.80
2022-12-05T08:05:52.289Z,123.80
2022-12-05T08:06:51.227Z,129.90
2022-12-05T08:07:51.281Z,137.00
2022-12-05T08:08:51.226Z,136.60
2022-12-05T08:09:51.226Z,130.80
2022-12-05T08:10:51.200Z,112.60
2022-12-05T08:11:52.847Z,104.90
2022-12-05T08:12:52.196Z,107.10
2022-12-05T08:13:51.165Z,108.40
2022-12-05T08:14:51.188Z,87.40
2022-12-05T08:15:51.159Z,96.40
2022-12-05T08:16:51.218Z,100.40
2022-12-05T08:17:51.202Z,91.20
2022-12-05T08:18:51.150Z,89.10
2022-12-05T08:19:51.129Z,83.40
2022-12-05T08:20:51.145Z,94.60
2022-12-05T08:21:51.138Z,94.10
2022-12-05T08:22:51.110Z,75.00
2022-12-05T08:23:51.136Z,75.60
2022-12-05T08:24:56.135Z,74.00
2022-12-05T08:25:53.091Z,77.00
2022-12-05T08:26:51.114Z,71.10
2022-12-05T08:27:51.150Z,66.10
2022-12-05T08:28:51.114Z,71.00
2022-12-05T08:29:51.040Z,65.60
2022-12-05T08:30:51.090Z,64.60
2022-12-05T08:31:51.052Z,63.30
2022-12-05T08:32:51.045Z,64.00
2022-12-05T08:33:55.548Z,68.20
2022-12-05T08:34:53.040Z,60.40
2022-12-05T08:35:51.020Z,63.90
2022-12-05T08:36:51.004Z,63.50
2022-12-05T08:37:51.017Z,53.00
2022-12-05T08:38:51.017Z,61.40
2022-12-05T08:39:50.963Z,55.10
2022-12-05T08:40:51.028Z,59.00
2022-12-05T08:41:50.970Z,57.00
2022-12-05T08:42:50.962Z,58.00
2022-12-05T08:43:50.969Z,56.60
2022-12-05T08:44:50.998Z,55.50
2022-12-05T08:45:50.952Z,46.20
2022-12-05T08:46:50.933Z,46.60
2022-12-05T08:47:50.901Z,49.80
2022-12-05T08:48:50.955Z,47.30
2022-12-05T08:49:50.922Z,42.70
2022-12-05T08:50:50.909Z,48.30
2022-12-05T08:51:50.881Z,48.20
2022-12-05T08:52:50.888Z,49.40
2022-12-05T08:54:23.280Z,53.50
2022-12-05T08:54:50.932Z,51.60
2022-12-05T08:56:26.870Z,47.10
2022-12-05T08:56:50.895Z,51.00
2022-12-05T08:58:22.760Z,52.30
2022-12-05T08:58:50.833Z,52.60
2022-12-05T08:59:50.911Z,57.40
2022-12-05T09:00:50.859Z,56.00
2022-12-05T09:01:50.916Z,57.70
2022-12-05T09:02:50.863Z,53.80
2022-12-05T09:03:50.786Z,53.00
2022-12-05T09:04:53.832Z,52.60
2022-12-05T09:05:54.888Z,51.60
2022-12-05T09:06:51.827Z,48.20
2022-12-05T09:07:50.847Z,52.20
2022-12-05T09:08:50.836Z,48.50
2022-12-05T09:09:50.740Z,48.80
2022-12-05T09:10:50.766Z,52.30
2022-12-05T09:11:50.761Z,56.10
2022-12-05T09:12:50.742Z,51.30
2022-12-05T09:13:50.740Z,48.90
2022-12-05T09:14:50.713Z,52.50
2022-12-05T09:15:50.754Z,53.30
2022-12-05T09:16:59.901Z,58.20
2022-12-05T09:17:50.762Z,56.60
2022-12-05T09:18:50.703Z,56.00
2022-12-05T09:19:50.772Z,57.60
2022-12-05T09:20:50.754Z,59.30
2022-12-05T09:21:50.764Z,57.70
2022-12-05T09:23:16.592Z,59.40
2022-12-05T09:23:50.737Z,66.40
2022-12-05T09:24:50.650Z,62.80
2022-12-05T09:25:50.673Z,66.20
2022-12-05T09:26:50.674Z,59.30
2022-12-05T09:27:50.841Z,58.60
2022-12-05T09:28:50.633Z,56.70
2022-12-05T09:29:50.582Z,69.30
2022-12-05T09:30:50.637Z,64.20
2022-12-05T09:31:50.584Z,60.60
2022-12-05T09:32:50.564Z,63.20
2022-12-05T09:33:50.561Z,57.40
2022-12-05T09:34:50.565Z,60.20
2022-12-05T09:35:50.526Z,49.20
2022-12-05T09:36:50.528Z,56.70
2022-12-05T09:37:50.526Z,57.40
2022-12-05T09:38:50.501Z,59.70
2022-12-05T09:39:50.533Z,50.40
2022-12-05T09:40:51.267Z,47.50
2022-12-05T09:41:50.496Z,51.70
2022-12-05T09:42:50.605Z,49.40
2022-12-05T09:43:50.500Z,51.10
2022-12-05T09:44:50.485Z,50.00
2022-12-05T09:45:50.626Z,48.10
2022-12-05T09:46:50.492Z,49.10
2022-12-05T09:47:50.487Z,44.00
2022-12-05T09:48:50.449Z,45.60
2022-12-05T09:49:50.423Z,48.40
2022-12-05T09:50:50.476Z,43.20
2022-12-05T09:51:55.085Z,40.40
2022-12-05T09:52:52.440Z,39.80
2022-12-05T09:53:50.409Z,42.00
2022-12-05T09:54:50.409Z,45.60
2022-12-05T09:55:50.434Z,44.10
2022-12-05T09:56:50.378Z,46.00
2022-12-05T09:57:50.373Z,40.10
2022-12-05T09:58:50.392Z,39.40
2022-12-05T09:59:50.408Z,42.00
2022-12-05T10:00:50.353Z,45.40
2022-12-05T10:01:51.240Z,46.70
2022-12-05T10:02:50.336Z,45.10
2022-12-05T10:03:50.440Z,45.30
2022-12-05T10:04:52.451Z,45.50
2022-12-05T10:05:51.497Z,49.70
2022-12-05T10:06:50.374Z,44.20
2022-12-05T10:07:50.404Z,44.90
2022-12-05T10:08:50.350Z,45.90
2022-12-05T10:09:50.313Z,44.10
2022-12-05T10:10:50.278Z,47.60
2022-12-05T10:11:50.316Z,48.20
2022-12-05T10:12:50.256Z,49.30
2022-12-05T10:13:50.279Z,50.90
2022-12-05T10:14:50.252Z,51.00
2022-12-05T10:15:55.628Z,48.00
2022-12-05T10:16:52.251Z,53.20
2022-12-05T10:17:50.250Z,46.40
2022-12-05T10:18:50.264Z,49.80
2022-12-05T10:19:50.238Z,51.70
2022-12-05T10:20:50.219Z,51.70
2022-12-05T10:21:50.217Z,53.30
2022-12-05T10:22:50.192Z,53.90
2022-12-05T10:23:57.667Z,48.20
2022-12-05T10:24:52.189Z,47.30
2022-12-05T10:25:50.185Z,47.10
2022-12-05T10:26:50.178Z,48.00
2022-12-05T10:27:50.189Z,50.30
2022-12-05T10:28:50.134Z,42.80
2022-12-05T10:29:50.691Z,43.60
2022-12-05T10:30:50.181Z,45.00
2022-12-05T10:31:50.163Z,45.70
2022-12-05T10:32:50.097Z,49.40
2022-12-05T10:33:50.086Z,46.80
2022-12-05T10:34:50.082Z,46.40
2022-12-05T10:35:50.094Z,52.10
2022-12-05T10:36:50.093Z,45.20
2022-12-05T10:37:50.090Z,48.80
2022-12-05T10:38:50.076Z,45.00
2022-12-05T10:39:50.062Z,50.40
2022-12-05T10:40:50.043Z,49.30
2022-12-05T10:41:50.440Z,46.00
2022-12-05T10:42:50.091Z,47.30
2022-12-05T10:43:50.020Z,49.20
2022-12-05T10:44:50.031Z,49.80
2022-12-05T10:45:50.011Z,49.00
2022-12-05T10:46:50.107Z,55.00
2022-12-05T10:47:50.010Z,49.00
2022-12-05T10:48:49.976Z,52.10
2022-12-05T10:49:49.969Z,45.50
2022-12-05T10:50:50.030Z,50.90
2022-12-05T10:51:49.994Z,48.80
2022-12-05T10:52:49.946Z,46.90
2022-12-05T10:53:49.967Z,43.30
2022-12-05T10:54:49.960Z,46.00
2022-12-05T10:56:21.469Z,51.30
2022-12-05T10:56:51.959Z,49.80
2022-12-05T10:57:49.937Z,49.10
2022-12-05T10:58:49.926Z,51.80
2022-12-05T10:59:49.955Z,44.00
2022-12-05T11:00:49.895Z,46.90
2022-12-05T11:01:49.938Z,45.70
2022-12-05T11:02:49.877Z,49.70
2022-12-05T11:03:49.874Z,50.30
2022-12-05T11:04:49.975Z,42.10
2022-12-05T11:05:49.851Z,44.50
2022-12-05T11:06:49.841Z,43.50
2022-12-05T11:07:50.032Z,43.30
2022-12-05T11:09:06.429Z,40.60
2022-12-05T11:09:51.803Z,41.00
2022-12-05T11:10:49.823Z,41.60
2022-12-05T11:11:49.846Z,44.60
2022-12-05T11:12:49.807Z,44.60
2022-12-05T11:13:49.792Z,48.20
2022-12-05T11:14:49.828Z,48.50
2022-12-05T11:15:55.354Z,58.10
2022-12-05T11:16:51.824Z,58.60
2022-12-05T11:17:49.746Z,57.50
2022-12-05T11:18:49.761Z,65.90
2022-12-05T11:19:49.766Z,65.90
2022-12-05T11:20:49.743Z,71.40
2022-12-05T11:21:49.719Z,69.90
2022-12-05T11:22:49.719Z,65.60
2022-12-05T11:23:49.705Z,59.20
2022-12-05T11:24:49.734Z,62.20
2022-12-05T11:25:49.680Z,58.50
2022-12-05T11:26:49.673Z,55.10
2022-12-05T11:27:49.672Z,58.10
2022-12-05T11:28:49.672Z,63.00
2022-12-05T11:29:49.677Z,73.40
2022-12-05T11:30:49.669Z,60.40
2022-12-05T11:31:49.652Z,50.00
2022-12-05T11:32:49.662Z,52.90
2022-12-05T11:33:49.637Z,49.80
2022-12-05T11:34:49.660Z,53.20
2022-12-05T11:35:49.647Z,60.80
2022-12-05T11:36:49.630Z,66.60
2022-12-05T11:37:49.594Z,76.40
2022-12-05T11:38:49.567Z,52.90
2022-12-05T11:39:50.584Z,63.20
2022-12-05T11:40:49.601Z,66.20
2022-12-05T11:41:49.587Z,61.80
2022-12-05T11:42:49.582Z,50.80
2022-12-05T11:43:49.557Z,55.60
2022-12-05T11:44:49.551Z,48.70
2022-12-05T11:45:49.596Z,48.30
2022-12-05T11:46:49.640Z,49.70
2022-12-05T11:47:49.538Z,48.40
2022-12-05T11:48:49.495Z,52.10
2022-12-05T11:49:50.504Z,47.50
2022-12-05T11:50:49.503Z,41.10
2022-12-05T11:51:49.515Z,43.80
2022-12-05T11:52:49.513Z,40.90
2022-12-05T11:53:49.482Z,39.10
2022-12-05T11:55:05.137Z,39.90
2022-12-05T11:55:51.500Z,35.10
2022-12-05T11:56:49.505Z,38.50
2022-12-05T11:57:52.534Z,41.60
2022-12-05T11:58:50.471Z,42.30
2022-12-05T11:59:49.441Z,44.90
2022-12-05T12:00:49.407Z,39.40
2022-12-05T12:01:49.455Z,40.70
2022-12-05T12:02:49.521Z,40.90
2022-12-05T12:03:49.469Z,41.90
2022-12-05T12:04:49.406Z,38.00
2022-12-05T12:05:49.363Z,40.10
2022-12-05T12:06:49.423Z,41.10
2022-12-05T12:07:49.439Z,39.40
2022-12-05T12:08:49.387Z,42.10
2022-12-05T12:09:49.362Z,45.50
2022-12-05T12:10:49.360Z,43.40
2022-12-05T12:11:49.337Z,42.10
2022-12-05T12:12:49.360Z,45.40
2022-12-05T12:13:49.337Z,45.60
2022-12-05T12:14:49.292Z,46.70
2022-12-05T12:15:49.306Z,41.40
2022-12-05T12:16:49.387Z,40.20
2022-12-05T12:17:49.282Z,45.50
2022-12-05T12:18:49.288Z,45.80
2022-12-05T12:19:49.266Z,44.90
2022-12-05T12:20:49.273Z,38.30
2022-12-05T12:21:49.250Z,38.80
2022-12-05T12:22:49.254Z,38.50
2022-12-05T12:23:49.260Z,42.00
2022-12-05T12:24:49.227Z,37.60
2022-12-05T12:25:49.243Z,38.50
2022-12-05T12:26:49.253Z,39.20
2022-12-05T12:27:49.227Z,37.10
2022-12-05T12:28:49.229Z,38.60
2022-12-05T12:29:49.180Z,38.80
2022-12-05T12:30:49.200Z,40.10
2022-12-05T12:31:49.283Z,37.40
2022-12-05T12:32:49.161Z,38.00
2022-12-05T12:33:49.165Z,35.30
2022-12-05T12:34:49.163Z,36.90
2022-12-05T12:35:49.145Z,36.50
2022-12-05T12:36:49.160Z,38.10
2022-12-05T12:37:49.137Z,39.00
2022-12-05T12:38:51.440Z,36.90
2022-12-05T12:39:50.104Z,33.00
2022-12-05T12:40:49.112Z,37.10
2022-12-05T12:41:49.110Z,32.70
2022-12-05T12:42:49.908Z,34.40
2022-12-05T12:43:54.128Z,35.70
2022-12-05T12:44:51.088Z,34.90
2022-12-05T12:45:49.134Z,33.10
2022-12-05T12:46:49.052Z,31.00
2022-12-05T12:47:49.075Z,34.60
2022-12-05T12:48:49.063Z,31.20
2022-12-05T12:49:49.044Z,32.00
2022-12-05T12:50:49.040Z,34.60
2022-12-05T12:51:49.023Z,36.50
2022-12-05T12:52:49.012Z,34.00
2022-12-05T12:53:49.003Z,33.80
2022-12-05T12:55:03.997Z,34.10
2022-12-05T12:55:51.012Z,32.90
2022-12-05T12:56:48.980Z,32.20
2022-12-05T12:57:48.956Z,30.40
2022-12-05T12:58:48.958Z,31.00
2022-12-05T12:59:48.969Z,33.00
2022-12-05T13:00:49.013Z,29.70
2022-12-05T13:01:49.175Z,27.10
2022-12-05T13:02:49.066Z,29.10
2022-12-05T13:03:51.752Z,28.10
2022-12-05T13:04:49.927Z,30.20